Hovedside
METAR-TAF:

METAR-TAF

Lufthavner :

Rovaniemi lufthavn

Rovaniemi, Finland

breddegrad: 66-34N, lengdegrad: 025-50E, høyde over havet: 197 m

Gjeldene værobservasjon

Denne rapporten ble laget for 5 minutter siden, klokken 04:50 UTC
Vind 3 kt fra Nordvest
Temperatur 4°C
Luftfuktighet 93%
Trykk 1009 hPa
Sikt 10 km eller mer
Spredte skyer i en høyde av 1900 ft

METAR: EFRO 160450Z 32003KT 9999 SCT019 04/03 Q1009

Tid: 07:55 (04:55 UTC)

Varsel

Denne rapporten ble laget for 2 timer og 21 minutter siden, klokken 02:34 UTC
Varsel gyldig fra 16. klokken 03 UTC til 17. klokken 03 UTC
Vind 5 kt fra Nord-nordvest
Sikt 10 km eller mer
Spredte skyer i en høyde av 1500 ft
Sannsynlighet 30%
fra 16. klokken 05 UTC til 16. klokken 08 UTC
Sikt: 1500 m
tåkebanker
Blir
fra 17. klokken 00 UTC til 17. klokken 02 UTC
Sikt: 0300 m
i en høyde av 100 ft
tåke

TAF: EFRO 160234Z 1603/1703 34005KT 9999 SCT015 PROB30 1605/1608 1500 BCFG BECMG 1700/1702 0300 FG VV001

Værobservasjoner og værvarsel for over 4000 flyplasser (METAR- og TAF-rapporter).

Tilgjengelige stasjoner er representert av de røde og gule prikkene på kartet.

Hold musepekeren over prikken for å se navnet på stasjonen.

Klikk så for å se værobservasjoner og -varsler.

For å forandre kartet kan du klikke på den grønne knappen med svart kryss for å zoome inn, på den grønne knappen med strek for å zoome ut, eller på de grønne pilene for å se tilstøtende kart.


METAR-TAF: